KMDD

Midland Airpark

Midland, Texas, USA
METAR KMDD 211415Z AUTO 09008KT 3SM BR 18/16 A3012 RMK AO2 T01830160
Observed Flight Rules
May-21 @ 14:15 UTC (34 minutes ago)
Wind Visibility Conditions
90° at 8 knots 3 miles
  • Mist
Temperatures Readings
Current 18°C / 64°F
Dewpoint 16°C / 61°F
Humidity 88%
Altimeter 30.12" Hg
Pressure 1020 hPa
Elevation 854
METAR KMDD 211415Z AUTO 09008KT 3SM BR 18/16 A3012 RMK AO2 T01830160
Observed Flight Rules
May-21 @ 14:15 UTC
(34 minutes ago)
Wind Visibility
90° at 8 knots 3 miles
Conditions
  • Mist
Temperature Dewpoint
18°C / 64°F 16°C / 61°F
Humidity Altimeter Pressure
88% 30.12" Hg 1020 hPa